sensor_id;sensor_type;location;lat;lon;timestamp;temperature;humidity
15879;DHT22;61999;51.514;14.614;2023-04-01T00:00:00;4.70;72.60
15879;DHT22;61999;51.514;14.614;2023-04-01T00:02:30;4.70;72.70
15879;DHT22;61999;51.514;14.614;2023-04-01T00:04:58;4.60;73.10
15879;DHT22;61999;51.514;14.614;2023-04-01T00:07:25;4.70;73.00
15879;DHT22;61999;51.514;14.614;2023-04-01T00:09:53;4.60;73.30
15879;DHT22;61999;51.514;14.614;2023-04-01T00:12:21;4.60;73.70
15879;DHT22;61999;51.514;14.614;2023-04-01T00:14:51;4.70;73.80
15879;DHT22;61999;51.514;14.614;2023-04-01T00:17:19;4.50;73.90
15879;DHT22;61999;51.514;14.614;2023-04-01T00:19:49;4.40;75.60
15879;DHT22;61999;51.514;14.614;2023-04-01T00:22:17;4.30;74.90
15879;DHT22;61999;51.514;14.614;2023-04-01T00:24:45;4.20;75.40
15879;DHT22;61999;51.514;14.614;2023-04-01T00:27:13;4.10;75.60
15879;DHT22;61999;51.514;14.614;2023-04-01T00:29:42;4.10;75.90
15879;DHT22;61999;51.514;14.614;2023-04-01T00:32:10;4.10;75.60
15879;DHT22;61999;51.514;14.614;2023-04-01T00:34:39;4.20;75.10
15879;DHT22;61999;51.514;14.614;2023-04-01T00:37:08;4.20;75.00
15879;DHT22;61999;51.514;14.614;2023-04-01T00:39:36;4.10;75.40
15879;DHT22;61999;51.514;14.614;2023-04-01T00:42:05;4.20;75.30
15879;DHT22;61999;51.514;14.614;2023-04-01T00:44:33;4.20;75.20
15879;DHT22;61999;51.514;14.614;2023-04-01T00:47:01;4.30;74.70
15879;DHT22;61999;51.514;14.614;2023-04-01T00:49:32;4.20;75.00
15879;DHT22;61999;51.514;14.614;2023-04-01T00:52:06;4.20;74.90
15879;DHT22;61999;51.514;14.614;2023-04-01T00:54:39;4.20;75.00
15879;DHT22;61999;51.514;14.614;2023-04-01T00:57:15;4.20;75.00
15879;DHT22;61999;51.514;14.614;2023-04-01T00:59:49;4.10;74.80
15879;DHT22;61999;51.514;14.614;2023-04-01T01:02:20;4.00;75.70
15879;DHT22;61999;51.514;14.614;2023-04-01T01:04:49;3.90;76.00
15879;DHT22;61999;51.514;14.614;2023-04-01T01:07:24;3.90;76.50
15879;DHT22;61999;51.514;14.614;2023-04-01T01:10:04;3.90;76.30
15879;DHT22;61999;51.514;14.614;2023-04-01T01:12:42;4.10;75.80
15879;DHT22;61999;51.514;14.614;2023-04-01T01:15:19;4.10;75.50
15879;DHT22;61999;51.514;14.614;2023-04-01T01:17:56;4.10;75.50
15879;DHT22;61999;51.514;14.614;2023-04-01T01:20:53;4.10;75.60
15879;DHT22;61999;51.514;14.614;2023-04-01T01:26:57;4.10;75.60
15879;DHT22;61999;51.514;14.614;2023-04-01T01:29:54;3.90;75.90
15879;DHT22;61999;51.514;14.614;2023-04-01T01:35:59;3.90;76.00
15879;DHT22;61999;51.514;14.614;2023-04-01T01:38:34;4.00;76.20
15879;DHT22;61999;51.514;14.614;2023-04-01T01:41:04;4.10;75.50
15879;DHT22;61999;51.514;14.614;2023-04-01T01:43:37;4.10;75.60
15879;DHT22;61999;51.514;14.614;2023-04-01T01:46:11;4.30;75.10
15879;DHT22;61999;51.514;14.614;2023-04-01T01:48:42;4.30;74.90
15879;DHT22;61999;51.514;14.614;2023-04-01T01:51:12;4.40;74.50
15879;DHT22;61999;51.514;14.614;2023-04-01T01:53:40;4.50;74.40
15879;DHT22;61999;51.514;14.614;2023-04-01T01:56:10;4.50;74.00
15879;DHT22;61999;51.514;14.614;2023-04-01T01:58:41;4.40;74.40
15879;DHT22;61999;51.514;14.614;2023-04-01T02:01:14;4.40;74.50
15879;DHT22;61999;51.514;14.614;2023-04-01T02:03:48;4.50;74.10
15879;DHT22;61999;51.514;14.614;2023-04-01T02:06:21;4.50;74.20
15879;DHT22;61999;51.514;14.614;2023-04-01T02:08:54;4.50;74.10
15879;DHT22;61999;51.514;14.614;2023-04-01T02:11:28;4.70;73.80
15879;DHT22;61999;51.514;14.614;2023-04-01T02:14:03;4.70;73.50
15879;DHT22;61999;51.514;14.614;2023-04-01T02:16:37;4.70;73.20
15879;DHT22;61999;51.514;14.614;2023-04-01T02:19:12;4.70;73.30
15879;DHT22;61999;51.514;14.614;2023-04-01T02:21:44;4.80;73.30
15879;DHT22;61999;51.514;14.614;2023-04-01T02:24:14;4.70;72.90
15879;DHT22;61999;51.514;14.614;2023-04-01T02:26:44;4.70;73.50
15879;DHT22;61999;51.514;14.614;2023-04-01T02:29:13;4.70;73.40
15879;DHT22;61999;51.514;14.614;2023-04-01T02:31:42;4.70;73.40
15879;DHT22;61999;51.514;14.614;2023-04-01T02:34:11;4.60;73.60
15879;DHT22;61999;51.514;14.614;2023-04-01T02:36:39;4.50;74.10
15879;DHT22;61999;51.514;14.614;2023-04-01T02:39:09;4.50;74.00
15879;DHT22;61999;51.514;14.614;2023-04-01T02:41:40;4.30;74.70
15879;DHT22;61999;51.514;14.614;2023-04-01T02:44:10;4.50;74.50
15879;DHT22;61999;51.514;14.614;2023-04-01T02:46:39;4.40;74.50
15879;DHT22;61999;51.514;14.614;2023-04-01T02:49:08;4.50;74.40
15879;DHT22;61999;51.514;14.614;2023-04-01T02:51:36;4.70;74.00
15879;DHT22;61999;51.514;14.614;2023-04-01T02:54:04;4.60;74.00
15879;DHT22;61999;51.514;14.614;2023-04-01T02:56:33;4.50;74.30
15879;DHT22;61999;51.514;14.614;2023-04-01T02:59:01;4.60;74.20
15879;DHT22;61999;51.514;14.614;2023-04-01T03:01:29;4.40;74.60
15879;DHT22;61999;51.514;14.614;2023-04-01T03:03:57;4.50;74.60
15879;DHT22;61999;51.514;14.614;2023-04-01T03:06:25;4.40;75.30
15879;DHT22;61999;51.514;14.614;2023-04-01T03:08:52;4.40;75.00
15879;DHT22;61999;51.514;14.614;2023-04-01T03:11:20;4.30;75.30
15879;DHT22;61999;51.514;14.614;2023-04-01T03:13:50;4.30;75.80
15879;DHT22;61999;51.514;14.614;2023-04-01T03:16:17;4.40;75.40
15879;DHT22;61999;51.514;14.614;2023-04-01T03:18:45;4.30;75.80
15879;DHT22;61999;51.514;14.614;2023-04-01T03:21:16;4.40;75.60
15879;DHT22;61999;51.514;14.614;2023-04-01T03:23:45;4.30;76.20
15879;DHT22;61999;51.514;14.614;2023-04-01T03:26:14;4.20;76.60
15879;DHT22;61999;51.514;14.614;2023-04-01T03:28:42;4.20;76.50
15879;DHT22;61999;51.514;14.614;2023-04-01T03:31:12;4.40;76.00
15879;DHT22;61999;51.514;14.614;2023-04-01T03:33:42;4.20;76.40
15879;DHT22;61999;51.514;14.614;2023-04-01T03:36:11;4.30;77.60
15879;DHT22;61999;51.514;14.614;2023-04-01T03:38:40;4.40;76.40
15879;DHT22;61999;51.514;14.614;2023-04-01T03:41:11;4.40;76.00
15879;DHT22;61999;51.514;14.614;2023-04-01T03:43:40;4.40;76.20
15879;DHT22;61999;51.514;14.614;2023-04-01T03:46:08;4.40;76.40
15879;DHT22;61999;51.514;14.614;2023-04-01T03:48:37;4.40;75.80
15879;DHT22;61999;51.514;14.614;2023-04-01T03:51:07;4.30;76.50
15879;DHT22;61999;51.514;14.614;2023-04-01T03:53:35;4.40;76.20
15879;DHT22;61999;51.514;14.614;2023-04-01T03:56:04;4.50;75.80
15879;DHT22;61999;51.514;14.614;2023-04-01T03:58:34;4.50;75.70
15879;DHT22;61999;51.514;14.614;2023-04-01T04:01:03;4.40;76.10
15879;DHT22;61999;51.514;14.614;2023-04-01T04:03:42;4.40;76.30
15879;DHT22;61999;51.514;14.614;2023-04-01T04:06:11;4.40;76.10
15879;DHT22;61999;51.514;14.614;2023-04-01T04:08:40;4.40;76.20
15879;DHT22;61999;51.514;14.614;2023-04-01T04:11:08;4.50;76.00
15879;DHT22;61999;51.514;14.614;2023-04-01T04:13:36;4.60;75.40
15879;DHT22;61999;51.514;14.614;2023-04-01T04:16:05;4.50;75.60
15879;DHT22;61999;51.514;14.614;2023-04-01T04:18:33;4.50;75.40
15879;DHT22;61999;51.514;14.614;2023-04-01T04:21:03;4.40;75.70
15879;DHT22;61999;51.514;14.614;2023-04-01T04:23:31;4.50;75.40
15879;DHT22;61999;51.514;14.614;2023-04-01T04:26:02;4.60;75.00
15879;DHT22;61999;51.514;14.614;2023-04-01T04:28:33;4.50;75.30
15879;DHT22;61999;51.514;14.614;2023-04-01T04:31:02;4.60;74.90
15879;DHT22;61999;51.514;14.614;2023-04-01T04:33:31;4.50;75.10
15879;DHT22;61999;51.514;14.614;2023-04-01T04:36:00;4.50;74.90
15879;DHT22;61999;51.514;14.614;2023-04-01T04:38:29;4.60;74.60
15879;DHT22;61999;51.514;14.614;2023-04-01T04:40:57;4.70;74.20
15879;DHT22;61999;51.514;14.614;2023-04-01T04:43:25;4.60;74.30
15879;DHT22;61999;51.514;14.614;2023-04-01T04:45:54;4.50;74.90
15879;DHT22;61999;51.514;14.614;2023-04-01T04:48:22;4.70;74.30
15879;DHT22;61999;51.514;14.614;2023-04-01T04:50:50;4.60;74.00
15879;DHT22;61999;51.514;14.614;2023-04-01T04:53:20;4.50;74.60
15879;DHT22;61999;51.514;14.614;2023-04-01T04:55:48;4.40;74.70
15879;DHT22;61999;51.514;14.614;2023-04-01T04:58:18;4.40;75.00
15879;DHT22;61999;51.514;14.614;2023-04-01T05:00:46;4.50;74.50
15879;DHT22;61999;51.514;14.614;2023-04-01T05:03:14;4.40;74.90
15879;DHT22;61999;51.514;14.614;2023-04-01T05:05:48;4.50;74.50
15879;DHT22;61999;51.514;14.614;2023-04-01T05:08:17;4.50;74.50
15879;DHT22;61999;51.514;14.614;2023-04-01T05:10:47;4.60;74.30
15879;DHT22;61999;51.514;14.614;2023-04-01T05:13:15;4.70;73.90
15879;DHT22;61999;51.514;14.614;2023-04-01T05:15:43;4.70;73.80
15879;DHT22;61999;51.514;14.614;2023-04-01T05:18:10;4.60;73.70
15879;DHT22;61999;51.514;14.614;2023-04-01T05:20:38;4.50;74.20
15879;DHT22;61999;51.514;14.614;2023-04-01T05:23:06;4.50;74.00
15879;DHT22;61999;51.514;14.614;2023-04-01T05:25:37;4.50;74.30
15879;DHT22;61999;51.514;14.614;2023-04-01T05:28:07;4.50;74.20
15879;DHT22;61999;51.514;14.614;2023-04-01T05:30:34;4.40;74.30
15879;DHT22;61999;51.514;14.614;2023-04-01T05:33:03;4.30;74.90
15879;DHT22;61999;51.514;14.614;2023-04-01T05:35:30;4.40;75.10
15879;DHT22;61999;51.514;14.614;2023-04-01T05:37:59;4.50;74.80
15879;DHT22;61999;51.514;14.614;2023-04-01T05:40:28;4.60;74.30
15879;DHT22;61999;51.514;14.614;2023-04-01T05:42:56;4.50;74.80
15879;DHT22;61999;51.514;14.614;2023-04-01T05:45:26;4.40;74.90
15879;DHT22;61999;51.514;14.614;2023-04-01T05:47:54;4.40;75.50
15879;DHT22;61999;51.514;14.614;2023-04-01T05:50:23;4.40;75.40
15879;DHT22;61999;51.514;14.614;2023-04-01T05:52:51;4.60;75.20
15879;DHT22;61999;51.514;14.614;2023-04-01T05:55:19;4.70;74.60
15879;DHT22;61999;51.514;14.614;2023-04-01T05:57:47;5.00;73.20
15879;DHT22;61999;51.514;14.614;2023-04-01T06:00:17;5.00;73.10
15879;DHT22;61999;51.514;14.614;2023-04-01T06:02:47;5.00;72.90
15879;DHT22;61999;51.514;14.614;2023-04-01T06:05:19;4.90;73.20
15879;DHT22;61999;51.514;14.614;2023-04-01T06:07:50;4.90;73.70
15879;DHT22;61999;51.514;14.614;2023-04-01T06:10:31;5.10;73.00
15879;DHT22;61999;51.514;14.614;2023-04-01T06:13:11;5.00;73.00
15879;DHT22;61999;51.514;14.614;2023-04-01T06:15:52;5.00;73.40
15879;DHT22;61999;51.514;14.614;2023-04-01T06:18:50;5.00;73.30
15879;DHT22;61999;51.514;14.614;2023-04-01T06:21:42;5.00;73.10
15879;DHT22;61999;51.514;14.614;2023-04-01T06:24:44;5.00;73.30
15879;DHT22;61999;51.514;14.614;2023-04-01T06:27:43;5.00;73.20
15879;DHT22;61999;51.514;14.614;2023-04-01T06:30:35;5.10;73.00
15879;DHT22;61999;51.514;14.614;2023-04-01T06:33:20;5.00;72.80
15879;DHT22;61999;51.514;14.614;2023-04-01T06:36:10;4.90;73.80
15879;DHT22;61999;51.514;14.614;2023-04-01T06:39:03;5.00;73.20
15879;DHT22;61999;51.514;14.614;2023-04-01T06:45:22;4.80;73.60
15879;DHT22;61999;51.514;14.614;2023-04-01T06:48:10;4.70;73.80
15879;DHT22;61999;51.514;14.614;2023-04-01T06:50:54;4.60;74.90
15879;DHT22;61999;51.514;14.614;2023-04-01T06:53:33;4.60;74.80
15879;DHT22;61999;51.514;14.614;2023-04-01T06:56:08;4.60;74.80
15879;DHT22;61999;51.514;14.614;2023-04-01T06:58:41;4.60;75.00
15879;DHT22;61999;51.514;14.614;2023-04-01T07:01:18;4.80;74.50
15879;DHT22;61999;51.514;14.614;2023-04-01T07:03:54;4.70;75.30
15879;DHT22;61999;51.514;14.614;2023-04-01T07:06:28;4.60;76.20
15879;DHT22;61999;51.514;14.614;2023-04-01T07:09:05;4.80;76.00
15879;DHT22;61999;51.514;14.614;2023-04-01T07:11:38;4.80;75.50
15879;DHT22;61999;51.514;14.614;2023-04-01T07:14:15;4.90;75.90
15879;DHT22;61999;51.514;14.614;2023-04-01T07:16:50;5.20;74.30
15879;DHT22;61999;51.514;14.614;2023-04-01T07:19:26;5.30;73.80
15879;DHT22;61999;51.514;14.614;2023-04-01T07:22:03;5.20;73.90
15879;DHT22;61999;51.514;14.614;2023-04-01T07:24:36;5.20;73.60
15879;DHT22;61999;51.514;14.614;2023-04-01T07:27:09;5.10;75.40
15879;DHT22;61999;51.514;14.614;2023-04-01T07:29:39;5.10;74.90
15879;DHT22;61999;51.514;14.614;2023-04-01T07:32:13;5.40;74.20
15879;DHT22;61999;51.514;14.614;2023-04-01T07:34:55;5.50;73.30
15879;DHT22;61999;51.514;14.614;2023-04-01T07:37:36;5.40;73.90
15879;DHT22;61999;51.514;14.614;2023-04-01T07:40:19;5.60;73.70
15879;DHT22;61999;51.514;14.614;2023-04-01T07:43:05;5.70;73.30
15879;DHT22;61999;51.514;14.614;2023-04-01T07:45:50;5.90;73.10
15879;DHT22;61999;51.514;14.614;2023-04-01T07:48:31;6.10;71.40
15879;DHT22;61999;51.514;14.614;2023-04-01T07:51:08;6.30;70.70
15879;DHT22;61999;51.514;14.614;2023-04-01T07:53:46;6.40;70.30
15879;DHT22;61999;51.514;14.614;2023-04-01T07:56:26;6.60;69.70
15879;DHT22;61999;51.514;14.614;2023-04-01T07:59:04;6.70;69.30
15879;DHT22;61999;51.514;14.614;2023-04-01T08:01:42;6.70;69.60
15879;DHT22;61999;51.514;14.614;2023-04-01T08:04:23;6.90;68.20
15879;DHT22;61999;51.514;14.614;2023-04-01T08:07:06;7.00;66.70
15879;DHT22;61999;51.514;14.614;2023-04-01T08:09:43;6.80;66.40
15879;DHT22;61999;51.514;14.614;2023-04-01T08:12:27;6.80;66.50
15879;DHT22;61999;51.514;14.614;2023-04-01T08:15:11;6.90;66.50
15879;DHT22;61999;51.514;14.614;2023-04-01T08:17:58;6.80;66.70
15879;DHT22;61999;51.514;14.614;2023-04-01T08:20:37;7.00;64.80
15879;DHT22;61999;51.514;14.614;2023-04-01T08:23:13;7.00;65.30
15879;DHT22;61999;51.514;14.614;2023-04-01T08:25:50;6.90;64.90
15879;DHT22;61999;51.514;14.614;2023-04-01T08:28:29;6.90;66.60
15879;DHT22;61999;51.514;14.614;2023-04-01T08:31:04;7.00;66.10
15879;DHT22;61999;51.514;14.614;2023-04-01T08:33:38;7.10;65.10
15879;DHT22;61999;51.514;14.614;2023-04-01T08:36:11;7.20;63.50
15879;DHT22;61999;51.514;14.614;2023-04-01T08:38:46;7.00;63.80
15879;DHT22;61999;51.514;14.614;2023-04-01T08:41:36;7.10;64.20
15879;DHT22;61999;51.514;14.614;2023-04-01T08:44:34;7.00;63.60
15879;DHT22;61999;51.514;14.614;2023-04-01T08:47:41;7.00;64.10
15879;DHT22;61999;51.514;14.614;2023-04-01T08:50:36;7.00;64.50
15879;DHT22;61999;51.514;14.614;2023-04-01T08:53:22;7.10;64.00
15879;DHT22;61999;51.514;14.614;2023-04-01T08:56:09;7.00;64.50
15879;DHT22;61999;51.514;14.614;2023-04-01T08:59:08;7.00;64.10
15879;DHT22;61999;51.514;14.614;2023-04-01T09:02:10;7.10;64.50
15879;DHT22;61999;51.514;14.614;2023-04-01T09:05:18;7.30;63.00
15879;DHT22;61999;51.514;14.614;2023-04-01T09:08:24;7.50;62.30
15879;DHT22;61999;51.514;14.614;2023-04-01T09:11:08;7.60;61.20
15879;DHT22;61999;51.514;14.614;2023-04-01T09:14:07;7.50;61.70
15879;DHT22;61999;51.514;14.614;2023-04-01T09:17:26;7.50;63.20
15879;DHT22;61999;51.514;14.614;2023-04-01T09:20:19;7.70;61.30
15879;DHT22;61999;51.514;14.614;2023-04-01T09:23:34;7.80;60.40
15879;DHT22;61999;51.514;14.614;2023-04-01T09:26:40;7.50;61.40
15879;DHT22;61999;51.514;14.614;2023-04-01T09:29:41;7.50;61.70
15879;DHT22;61999;51.514;14.614;2023-04-01T09:32:40;7.50;61.00
15879;DHT22;61999;51.514;14.614;2023-04-01T09:35:36;7.20;62.50
15879;DHT22;61999;51.514;14.614;2023-04-01T09:38:22;7.10;63.90
15879;DHT22;61999;51.514;14.614;2023-04-01T09:40:57;7.10;64.00
15879;DHT22;61999;51.514;14.614;2023-04-01T09:43:28;7.20;63.00
15879;DHT22;61999;51.514;14.614;2023-04-01T09:46:16;7.30;62.20
15879;DHT22;61999;51.514;14.614;2023-04-01T09:49:10;7.20;62.00
15879;DHT22;61999;51.514;14.614;2023-04-01T09:51:59;7.10;62.70
15879;DHT22;61999;51.514;14.614;2023-04-01T09:54:55;7.00;63.60
15879;DHT22;61999;51.514;14.614;2023-04-01T09:58:07;6.90;63.00
15879;DHT22;61999;51.514;14.614;2023-04-01T10:04:44;7.00;63.90
15879;DHT22;61999;51.514;14.614;2023-04-01T10:08:07;7.10;63.10
15879;DHT22;61999;51.514;14.614;2023-04-01T10:11:15;7.30;62.90
15879;DHT22;61999;51.514;14.614;2023-04-01T10:17:49;7.50;62.60
15879;DHT22;61999;51.514;14.614;2023-04-01T10:20:46;7.30;62.20
15879;DHT22;61999;51.514;14.614;2023-04-01T10:23:43;6.80;65.00
15879;DHT22;61999;51.514;14.614;2023-04-01T10:26:37;6.40;66.90
15879;DHT22;61999;51.514;14.614;2023-04-01T10:29:42;6.30;67.20
15879;DHT22;61999;51.514;14.614;2023-04-01T10:32:56;6.30;67.60
15879;DHT22;61999;51.514;14.614;2023-04-01T10:43:15;6.80;65.40
15879;DHT22;61999;51.514;14.614;2023-04-01T10:49:44;7.10;64.90
15879;DHT22;61999;51.514;14.614;2023-04-01T10:52:53;7.20;64.20
15879;DHT22;61999;51.514;14.614;2023-04-01T10:56:00;7.20;66.00
15879;DHT22;61999;51.514;14.614;2023-04-01T10:59:06;7.60;64.20
15879;DHT22;61999;51.514;14.614;2023-04-01T11:02:25;8.00;62.80
15879;DHT22;61999;51.514;14.614;2023-04-01T11:05:42;8.60;59.80
15879;DHT22;61999;51.514;14.614;2023-04-01T11:09:06;8.50;59.30
15879;DHT22;61999;51.514;14.614;2023-04-01T11:15:53;8.50;58.80
15879;DHT22;61999;51.514;14.614;2023-04-01T11:22:37;8.70;58.00
15879;DHT22;61999;51.514;14.614;2023-04-01T11:25:26;8.80;57.90
15879;DHT22;61999;51.514;14.614;2023-04-01T11:28:27;8.80;58.70
15879;DHT22;61999;51.514;14.614;2023-04-01T11:31:29;8.90;57.90
15879;DHT22;61999;51.514;14.614;2023-04-01T11:34:16;9.10;56.00
15879;DHT22;61999;51.514;14.614;2023-04-01T11:37:07;9.20;55.60
15879;DHT22;61999;51.514;14.614;2023-04-01T11:39:54;9.20;56.20
15879;DHT22;61999;51.514;14.614;2023-04-01T11:42:34;9.20;56.30
15879;DHT22;61999;51.514;14.614;2023-04-01T11:45:31;9.20;56.90
15879;DHT22;61999;51.514;14.614;2023-04-01T11:48:19;9.30;56.50
15879;DHT22;61999;51.514;14.614;2023-04-01T11:54:43;9.60;55.70
15879;DHT22;61999;51.514;14.614;2023-04-01T11:57:41;9.90;54.70
15879;DHT22;61999;51.514;14.614;2023-04-01T12:00:31;10.00;54.00
15879;DHT22;61999;51.514;14.614;2023-04-01T12:03:38;10.10;53.80
15879;DHT22;61999;51.514;14.614;2023-04-01T12:06:22;10.30;54.00
15879;DHT22;61999;51.514;14.614;2023-04-01T12:09:02;10.30;55.90
15879;DHT22;61999;51.514;14.614;2023-04-01T12:11:48;10.70;53.30
15879;DHT22;61999;51.514;14.614;2023-04-01T12:14:32;11.00;54.20
15879;DHT22;61999;51.514;14.614;2023-04-01T12:17:18;11.30;51.30
15879;DHT22;61999;51.514;14.614;2023-04-01T12:20:01;11.30;53.20
15879;DHT22;61999;51.514;14.614;2023-04-01T12:22:59;11.60;52.70
15879;DHT22;61999;51.514;14.614;2023-04-01T12:26:00;11.80;51.90
15879;DHT22;61999;51.514;14.614;2023-04-01T12:28:49;12.00;49.80
15879;DHT22;61999;51.514;14.614;2023-04-01T12:31:41;12.20;49.30
15879;DHT22;61999;51.514;14.614;2023-04-01T12:34:42;12.40;49.40
15879;DHT22;61999;51.514;14.614;2023-04-01T12:37:35;12.40;49.20
15879;DHT22;61999;51.514;14.614;2023-04-01T12:40:31;12.40;50.10
15879;DHT22;61999;51.514;14.614;2023-04-01T12:43:33;12.60;48.70
15879;DHT22;61999;51.514;14.614;2023-04-01T12:46:32;12.80;50.20
15879;DHT22;61999;51.514;14.614;2023-04-01T12:49:34;12.90;49.60
15879;DHT22;61999;51.514;14.614;2023-04-01T12:52:28;13.10;50.00
15879;DHT22;61999;51.514;14.614;2023-04-01T12:55:28;13.70;46.30
15879;DHT22;61999;51.514;14.614;2023-04-01T12:58:38;13.90;51.10
15879;DHT22;61999;51.514;14.614;2023-04-01T13:01:28;14.40;51.70
15879;DHT22;61999;51.514;14.614;2023-04-01T13:07:47;15.70;49.40
15879;DHT22;61999;51.514;14.614;2023-04-01T13:10:38;15.90;48.60
15879;DHT22;61999;51.514;14.614;2023-04-01T13:14:08;16.00;45.40
15879;DHT22;61999;51.514;14.614;2023-04-01T13:16:57;16.00;42.90
15879;DHT22;61999;51.514;14.614;2023-04-01T13:19:36;15.60;44.50
15879;DHT22;61999;51.514;14.614;2023-04-01T13:22:16;15.30;42.90
15879;DHT22;61999;51.514;14.614;2023-04-01T13:24:56;15.00;43.70
15879;DHT22;61999;51.514;14.614;2023-04-01T13:27:34;14.80;43.10
15879;DHT22;61999;51.514;14.614;2023-04-01T13:30:22;14.40;43.90
15879;DHT22;61999;51.514;14.614;2023-04-01T13:32:59;14.10;44.50
15879;DHT22;61999;51.514;14.614;2023-04-01T13:35:39;14.30;44.70
15879;DHT22;61999;51.514;14.614;2023-04-01T13:38:38;14.40;46.60
15879;DHT22;61999;51.514;14.614;2023-04-01T13:41:25;14.90;43.60
15879;DHT22;61999;51.514;14.614;2023-04-01T13:44:11;15.20;44.00
15879;DHT22;61999;51.514;14.614;2023-04-01T13:47:23;15.60;42.60
15879;DHT22;61999;51.514;14.614;2023-04-01T13:50:25;16.10;39.20
15879;DHT22;61999;51.514;14.614;2023-04-01T13:53:17;15.90;39.20
15879;DHT22;61999;51.514;14.614;2023-04-01T13:56:10;15.70;42.50
15879;DHT22;61999;51.514;14.614;2023-04-01T13:59:16;15.90;40.70
15879;DHT22;61999;51.514;14.614;2023-04-01T14:02:07;16.10;42.70
15879;DHT22;61999;51.514;14.614;2023-04-01T14:05:03;16.40;39.90
15879;DHT22;61999;51.514;14.614;2023-04-01T14:08:01;16.20;39.80
15879;DHT22;61999;51.514;14.614;2023-04-01T14:10:40;15.50;40.80
15879;DHT22;61999;51.514;14.614;2023-04-01T14:13:18;15.10;40.20
15879;DHT22;61999;51.514;14.614;2023-04-01T14:16:11;14.80;41.10
15879;DHT22;61999;51.514;14.614;2023-04-01T14:19:02;14.80;41.30
15879;DHT22;61999;51.514;14.614;2023-04-01T14:21:41;14.60;41.10
15879;DHT22;61999;51.514;14.614;2023-04-01T14:24:22;14.10;41.80
15879;DHT22;61999;51.514;14.614;2023-04-01T14:27:29;13.70;42.50
15879;DHT22;61999;51.514;14.614;2023-04-01T14:30:25;13.40;43.10
15879;DHT22;61999;51.514;14.614;2023-04-01T14:33:19;13.00;43.80
15879;DHT22;61999;51.514;14.614;2023-04-01T14:36:04;12.70;45.20
15879;DHT22;61999;51.514;14.614;2023-04-01T14:38:55;12.50;45.70
15879;DHT22;61999;51.514;14.614;2023-04-01T14:41:46;12.60;44.90
15879;DHT22;61999;51.514;14.614;2023-04-01T14:44:37;12.60;45.20
15879;DHT22;61999;51.514;14.614;2023-04-01T14:47:34;12.50;45.60
15879;DHT22;61999;51.514;14.614;2023-04-01T14:50:15;12.40;45.90
15879;DHT22;61999;51.514;14.614;2023-04-01T14:52:54;12.40;46.40
15879;DHT22;61999;51.514;14.614;2023-04-01T14:55:33;12.40;46.20
15879;DHT22;61999;51.514;14.614;2023-04-01T14:58:14;12.40;47.60
15879;DHT22;61999;51.514;14.614;2023-04-01T15:01:00;12.50;48.30
15879;DHT22;61999;51.514;14.614;2023-04-01T15:03:50;12.60;48.90
15879;DHT22;61999;51.514;14.614;2023-04-01T15:06:55;12.80;49.00
15879;DHT22;61999;51.514;14.614;2023-04-01T15:09:39;13.20;47.00
15879;DHT22;61999;51.514;14.614;2023-04-01T15:12:22;13.40;46.70
15879;DHT22;61999;51.514;14.614;2023-04-01T15:15:10;13.30;47.10
15879;DHT22;61999;51.514;14.614;2023-04-01T15:17:57;13.30;47.50
15879;DHT22;61999;51.514;14.614;2023-04-01T15:20:41;13.30;47.50
15879;DHT22;61999;51.514;14.614;2023-04-01T15:23:25;13.10;47.80
15879;DHT22;61999;51.514;14.614;2023-04-01T15:26:17;12.90;48.10
15879;DHT22;61999;51.514;14.614;2023-04-01T15:29:01;12.80;48.30
15879;DHT22;61999;51.514;14.614;2023-04-01T15:31:43;12.70;48.70
15879;DHT22;61999;51.514;14.614;2023-04-01T15:34:29;12.60;48.50
15879;DHT22;61999;51.514;14.614;2023-04-01T15:37:09;12.40;48.60
15879;DHT22;61999;51.514;14.614;2023-04-01T15:39:54;12.30;49.00
15879;DHT22;61999;51.514;14.614;2023-04-01T15:42:43;12.30;49.40
15879;DHT22;61999;51.514;14.614;2023-04-01T15:45:31;12.20;49.70
15879;DHT22;61999;51.514;14.614;2023-04-01T15:48:17;12.10;49.90
15879;DHT22;61999;51.514;14.614;2023-04-01T15:51:24;12.00;50.20
15879;DHT22;61999;51.514;14.614;2023-04-01T15:54:25;11.90;50.40
15879;DHT22;61999;51.514;14.614;2023-04-01T15:57:10;11.70;50.70
15879;DHT22;61999;51.514;14.614;2023-04-01T16:00:06;11.60;51.40
15879;DHT22;61999;51.514;14.614;2023-04-01T16:02:45;11.60;51.50
15879;DHT22;61999;51.514;14.614;2023-04-01T16:05:27;11.40;51.70
15879;DHT22;61999;51.514;14.614;2023-04-01T16:08:16;11.40;52.20
15879;DHT22;61999;51.514;14.614;2023-04-01T16:11:08;11.40;52.60
15879;DHT22;61999;51.514;14.614;2023-04-01T16:13:55;11.30;52.70
15879;DHT22;61999;51.514;14.614;2023-04-01T16:16:47;11.20;52.90
15879;DHT22;61999;51.514;14.614;2023-04-01T16:19:33;11.10;52.90
15879;DHT22;61999;51.514;14.614;2023-04-01T16:22:13;11.00;53.00
15879;DHT22;61999;51.514;14.614;2023-04-01T16:24:48;11.00;53.00
15879;DHT22;61999;51.514;14.614;2023-04-01T16:27:27;10.90;52.80
15879;DHT22;61999;51.514;14.614;2023-04-01T16:30:25;10.70;52.90
15879;DHT22;61999;51.514;14.614;2023-04-01T16:33:03;10.60;53.10
15879;DHT22;61999;51.514;14.614;2023-04-01T16:35:42;10.60;53.60
15879;DHT22;61999;51.514;14.614;2023-04-01T16:38:20;10.50;53.50
15879;DHT22;61999;51.514;14.614;2023-04-01T16:41:01;10.40;53.50
15879;DHT22;61999;51.514;14.614;2023-04-01T16:43:42;10.20;53.80
15879;DHT22;61999;51.514;14.614;2023-04-01T16:46:22;10.10;54.40
15879;DHT22;61999;51.514;14.614;2023-04-01T16:49:04;10.10;54.50
15879;DHT22;61999;51.514;14.614;2023-04-01T16:51:47;10.00;54.60
15879;DHT22;61999;51.514;14.614;2023-04-01T16:54:28;10.00;55.40
15879;DHT22;61999;51.514;14.614;2023-04-01T16:57:04;9.90;54.90
15879;DHT22;61999;51.514;14.614;2023-04-01T16:59:47;9.80;55.10
15879;DHT22;61999;51.514;14.614;2023-04-01T17:02:31;9.70;54.80
15879;DHT22;61999;51.514;14.614;2023-04-01T17:05:06;9.60;54.90
15879;DHT22;61999;51.514;14.614;2023-04-01T17:07:46;9.50;55.70
15879;DHT22;61999;51.514;14.614;2023-04-01T17:10:46;9.50;55.60
15879;DHT22;61999;51.514;14.614;2023-04-01T17:13:32;9.40;55.60
15879;DHT22;61999;51.514;14.614;2023-04-01T17:16:20;9.40;55.50
15879;DHT22;61999;51.514;14.614;2023-04-01T17:19:06;9.30;55.80
15879;DHT22;61999;51.514;14.614;2023-04-01T17:21:57;9.20;55.70
15879;DHT22;61999;51.514;14.614;2023-04-01T17:24:56;9.20;56.00
15879;DHT22;61999;51.514;14.614;2023-04-01T17:27:40;9.10;56.20
15879;DHT22;61999;51.514;14.614;2023-04-01T17:30:22;9.00;56.00
15879;DHT22;61999;51.514;14.614;2023-04-01T17:33:17;9.00;56.30
15879;DHT22;61999;51.514;14.614;2023-04-01T17:36:12;8.90;56.40
15879;DHT22;61999;51.514;14.614;2023-04-01T17:41:54;8.80;56.80
15879;DHT22;61999;51.514;14.614;2023-04-01T17:44:40;8.80;56.80